Ball Ground, Georgia
Current Conditions -  °F | °C
As of 3:15 PM on Thursday 29 Jan 2015 (Local Time) from KCNI Reporting Station
Broken Clouds Broken Clouds  
Wind Chill: 54°   Ceiling: 9500
Heat Index: 54°   Visibility: 10mi
Dew Point: 19°   Wind: 8mph
Humidity: 26%   Direction: 220°SW
Pressure: 30.12"   Gusts: NA
Location:  34.34°N, 84.38°W
Report Text: KCNI 292015Z AUTO 22007KT 10SM BKN095 12/M07 A3012 RMK AO2
Loading
Personal Weather Stations






























Interactive Weather Map New forecast layout! Learn more

10-Day Weather Forecast

Advertisements
Track Severe Weather on mobile